createdAt,value
2019-01-11T00:00:59.069Z,41.08
2019-01-11T00:03:28.370Z,40.98
2019-01-11T00:05:58.134Z,39.70
2019-01-11T00:08:27.418Z,43.48
2019-01-11T00:10:57.025Z,41.40
2019-01-11T00:13:26.643Z,39.20
2019-01-11T00:15:55.937Z,56.80
2019-01-11T00:18:26.470Z,55.00
2019-01-11T00:20:56.092Z,51.10
2019-01-11T00:23:25.687Z,40.75
2019-01-11T00:25:54.961Z,49.83
2019-01-11T00:28:24.250Z,48.80
2019-01-11T00:30:53.527Z,66.45
2019-01-11T00:33:23.098Z,48.60
2019-01-11T00:35:52.703Z,53.95
2019-01-11T00:38:21.999Z,77.50
2019-01-11T00:40:51.274Z,56.75
2019-01-11T00:43:21.642Z,83.60
2019-01-11T00:45:50.923Z,49.98
2019-01-11T00:48:20.223Z,75.15
2019-01-11T00:50:49.506Z,57.13
2019-01-11T00:53:19.037Z,86.67
2019-01-11T00:55:48.386Z,60.00
2019-01-11T00:58:17.670Z,64.90
2019-01-11T01:00:47.248Z,54.93
2019-01-11T01:03:16.530Z,56.48
2019-01-11T01:05:46.367Z,50.98
2019-01-11T01:08:15.980Z,54.08
2019-01-11T01:10:45.424Z,51.00
2019-01-11T01:13:15.045Z,47.62
2019-01-11T01:15:44.346Z,46.90
2019-01-11T01:18:13.621Z,52.45
2019-01-11T01:20:43.190Z,51.65
2019-01-11T01:23:12.482Z,53.25
2019-01-11T01:25:41.758Z,50.88
2019-01-11T01:28:11.294Z,46.92
2019-01-11T01:30:40.807Z,49.00
2019-01-11T01:33:10.136Z,46.28
2019-01-11T01:35:39.712Z,50.12
2019-01-11T01:38:09.311Z,44.40
2019-01-11T01:40:38.680Z,47.00
2019-01-11T01:43:07.953Z,44.75
2019-01-11T01:45:37.292Z,45.45
2019-01-11T01:48:06.659Z,44.98
2019-01-11T01:50:36.166Z,53.65
2019-01-11T01:53:05.460Z,54.95
2019-01-11T01:55:35.040Z,61.95
2019-01-11T01:58:05.159Z,73.45
2019-01-11T02:00:34.511Z,71.87
2019-01-11T02:03:03.866Z,60.03
2019-01-11T02:05:33.489Z,68.37
2019-01-11T02:08:02.764Z,71.30
2019-01-11T02:10:32.067Z,66.07
2019-01-11T02:13:01.675Z,67.37
2019-01-11T02:15:31.283Z,81.10
2019-01-11T02:18:00.903Z,77.90
2019-01-11T02:20:30.507Z,83.67
2019-01-11T02:23:00.127Z,93.12
2019-01-11T02:25:29.823Z,98.07
2019-01-11T02:27:59.431Z,92.33
2019-01-11T02:30:28.776Z,92.02
2019-01-11T02:32:58.059Z,80.47
2019-01-11T02:35:28.310Z,75.50
2019-01-11T02:37:57.587Z,81.08
2019-01-11T02:40:26.877Z,77.20
2019-01-11T02:42:56.213Z,73.57
2019-01-11T02:45:25.519Z,70.37
2019-01-11T02:47:54.794Z,69.25
2019-01-11T02:50:24.087Z,69.75
2019-01-11T02:52:53.665Z,66.57
2019-01-11T02:55:23.271Z,73.22
2019-01-11T02:57:52.560Z,72.72
2019-01-11T03:00:21.841Z,70.87
2019-01-11T03:02:51.132Z,64.32
2019-01-11T03:05:20.491Z,71.57
2019-01-11T03:07:49.781Z,65.70
2019-01-11T03:10:21.244Z,75.75
2019-01-11T03:12:50.829Z,69.90
2019-01-11T03:15:21.324Z,72.12
2019-01-11T03:17:50.674Z,67.78
2019-01-11T03:20:20.156Z,67.00
2019-01-11T03:22:49.429Z,72.90
2019-01-11T03:25:18.712Z,76.02
2019-01-11T03:27:47.989Z,74.97
2019-01-11T03:30:20.368Z,70.25
2019-01-11T03:32:49.638Z,69.15
2019-01-11T03:35:19.276Z,68.28
2019-01-11T03:37:49.274Z,71.15
2019-01-11T03:40:20.979Z,72.90
2019-01-11T03:42:50.739Z,65.65
2019-01-11T03:45:21.672Z,67.60
2019-01-11T03:47:50.943Z,63.60
2019-01-11T03:50:20.587Z,63.48
2019-01-11T03:52:49.853Z,66.30
2019-01-11T03:55:19.318Z,62.50
2019-01-11T03:57:48.838Z,68.40
2019-01-11T04:00:22.594Z,65.75
2019-01-11T04:02:52.309Z,67.72
2019-01-11T04:05:21.672Z,65.65
2019-01-11T04:07:50.982Z,63.10
2019-01-11T04:10:21.406Z,67.75
2019-01-11T04:12:50.865Z,69.42
2019-01-11T04:15:20.994Z,70.15
2019-01-11T04:17:55.372Z,68.05
2019-01-11T04:20:24.662Z,57.38
2019-01-11T04:22:55.574Z,63.85
2019-01-11T04:25:25.956Z,63.30
2019-01-11T04:27:55.558Z,63.73
2019-01-11T04:30:24.838Z,61.35
2019-01-11T04:32:54.371Z,59.08
2019-01-11T04:35:23.729Z,62.75
2019-01-11T04:37:53.014Z,60.03
2019-01-11T04:40:22.685Z,60.12
2019-01-11T04:42:51.968Z,57.08
2019-01-11T04:45:21.492Z,62.15
2019-01-11T04:47:50.783Z,58.00
2019-01-11T04:50:20.458Z,61.75
2019-01-11T04:52:50.010Z,56.45
2019-01-11T04:55:19.286Z,53.02
2019-01-11T04:57:48.914Z,51.23
2019-01-11T05:00:20.379Z,57.65
2019-01-11T05:02:50.279Z,58.48
2019-01-11T05:05:19.799Z,56.28
2019-01-11T05:07:49.078Z,60.75
2019-01-11T05:10:18.699Z,54.03
2019-01-11T05:12:47.991Z,52.43
2019-01-11T05:15:17.343Z,54.13
2019-01-11T05:17:46.919Z,58.00
2019-01-11T05:20:17.141Z,52.23
2019-01-11T05:22:46.613Z,62.65
2019-01-11T05:25:16.091Z,54.65
2019-01-11T05:27:45.422Z,57.10
2019-01-11T05:30:16.346Z,59.88
2019-01-11T05:32:45.625Z,56.77
2019-01-11T05:35:14.989Z,59.50
2019-01-11T05:37:44.587Z,57.55
2019-01-11T05:40:18.030Z,55.10
2019-01-11T05:42:48.109Z,59.93
2019-01-11T05:45:18.065Z,55.90
2019-01-11T05:47:47.422Z,51.48
2019-01-11T05:50:23.466Z,48.48
2019-01-11T05:52:48.535Z,48.75
2019-01-11T05:55:19.731Z,50.60
2019-01-11T05:57:50.659Z,50.55
2019-01-11T06:00:19.935Z,50.23
2019-01-11T06:02:49.217Z,43.38
2019-01-11T06:05:18.775Z,46.88
2019-01-11T06:07:49.140Z,48.63
2019-01-11T06:10:18.410Z,45.85
2019-01-11T06:12:47.691Z,44.98
2019-01-11T06:15:16.977Z,41.63
2019-01-11T06:17:46.613Z,46.73
2019-01-11T06:20:16.434Z,40.40
2019-01-11T06:22:46.135Z,49.15
2019-01-11T06:25:15.417Z,45.45
2019-01-11T06:27:44.706Z,41.00
2019-01-11T06:30:14.831Z,46.90
2019-01-11T06:32:44.359Z,42.80
2019-01-11T06:35:13.970Z,44.25
2019-01-11T06:37:43.253Z,39.53
2019-01-11T06:40:12.886Z,37.78
2019-01-11T06:42:42.170Z,41.77
2019-01-11T06:45:11.923Z,39.40
2019-01-11T06:47:41.282Z,40.10
2019-01-11T06:50:17.484Z,39.13
2019-01-11T06:52:47.007Z,36.58
2019-01-11T06:55:16.287Z,40.28
2019-01-11T06:57:45.857Z,41.73
2019-01-11T07:00:19.058Z,42.98
2019-01-11T07:02:48.338Z,43.52
2019-01-11T07:05:17.623Z,44.65
2019-01-11T07:07:46.905Z,39.88
2019-01-11T07:10:21.488Z,38.92
2019-01-11T07:12:50.778Z,43.68
2019-01-11T07:15:20.145Z,39.98
2019-01-11T07:17:49.696Z,33.10
2019-01-11T07:20:18.993Z,38.80
2019-01-11T07:22:48.262Z,37.65
2019-01-11T07:25:17.799Z,37.90
2019-01-11T07:27:48.709Z,40.55
2019-01-11T07:30:17.995Z,52.80
2019-01-11T07:32:47.279Z,33.13
2019-01-11T07:35:16.849Z,34.38
2019-01-11T07:37:46.457Z,40.23
2019-01-11T07:40:16.065Z,35.80
2019-01-11T07:42:45.341Z,38.92
2019-01-11T07:45:14.629Z,36.28
2019-01-11T07:47:43.911Z,35.60
2019-01-11T07:50:13.471Z,33.28
2019-01-11T07:52:43.077Z,44.77
2019-01-11T07:55:12.891Z,39.70
2019-01-11T07:57:43.138Z,36.58
2019-01-11T08:00:13.767Z,40.25
2019-01-11T08:02:43.355Z,40.95
2019-01-11T08:05:12.731Z,36.00
2019-01-11T08:07:42.015Z,41.90
2019-01-11T08:10:12.538Z,35.43
2019-01-11T08:12:41.814Z,45.10
2019-01-11T08:15:14.255Z,36.33
2019-01-11T08:17:43.601Z,42.60
2019-01-11T08:20:12.879Z,45.23
2019-01-11T08:22:43.903Z,46.80
2019-01-11T08:25:14.771Z,67.37
2019-01-11T08:27:44.838Z,51.53
2019-01-11T08:30:17.561Z,44.55
2019-01-11T08:32:46.841Z,34.55
2019-01-11T08:35:16.470Z,34.98
2019-01-11T08:37:47.084Z,36.60
2019-01-11T08:40:16.364Z,41.30
2019-01-11T08:42:45.654Z,40.33
2019-01-11T08:45:15.465Z,59.42
2019-01-11T08:47:44.764Z,49.77
2019-01-11T08:50:21.480Z,32.03
2019-01-11T08:52:51.078Z,31.68
2019-01-11T08:55:20.688Z,28.38
2019-01-11T08:57:49.975Z,65.65
2019-01-11T09:00:19.594Z,39.00
2019-01-11T09:02:48.883Z,76.28
2019-01-11T09:05:18.157Z,42.17
2019-01-11T09:07:47.449Z,35.90
2019-01-11T09:10:22.859Z,73.40
2019-01-11T09:12:49.232Z,104.40
2019-01-11T09:15:18.774Z,101.60
2019-01-11T09:17:58.907Z,63.70
2019-01-11T09:20:28.439Z,78.45
2019-01-11T09:22:57.735Z,333.55
2019-01-11T09:25:27.022Z,260.15
2019-01-11T09:27:56.652Z,128.15
2019-01-11T09:30:25.938Z,44.83
2019-01-11T09:32:55.223Z,390.10
2019-01-11T09:35:25.387Z,103.53
2019-01-11T09:37:54.677Z,279.25
2019-01-11T09:40:23.949Z,109.00
2019-01-11T09:42:53.992Z,237.95
2019-01-11T09:45:23.598Z,106.75
2019-01-11T09:47:53.311Z,145.45
2019-01-11T09:50:22.596Z,275.45
2019-01-11T09:52:52.215Z,122.55
2019-01-11T09:55:21.830Z,168.07
2019-01-11T09:57:51.128Z,400.98
2019-01-11T10:00:23.525Z,111.37
2019-01-11T10:02:54.754Z,256.85
2019-01-11T10:05:24.347Z,569.92
2019-01-11T10:07:53.824Z,217.50
2019-01-11T10:10:23.373Z,71.07
2019-01-11T10:12:52.659Z,268.37
2019-01-11T10:15:22.182Z,389.30
2019-01-11T10:17:52.127Z,84.47
2019-01-11T10:20:21.416Z,622.95
2019-01-11T10:22:50.699Z,101.00
2019-01-11T10:25:21.432Z,586.33
2019-01-11T10:27:51.037Z,102.05
2019-01-11T10:30:22.170Z,369.35
2019-01-11T10:32:51.720Z,391.40
2019-01-11T10:35:21.286Z,51.33
2019-01-11T10:37:51.915Z,40.52
2019-01-11T10:40:21.381Z,71.12
2019-01-11T10:42:50.935Z,147.00
2019-01-11T10:45:21.277Z,56.98
2019-01-11T10:47:52.161Z,51.80
2019-01-11T10:50:22.028Z,119.02
2019-01-11T10:52:51.319Z,41.13
2019-01-11T10:55:21.078Z,310.10
2019-01-11T10:57:50.729Z,527.97
2019-01-11T11:00:24.863Z,103.62
2019-01-11T11:02:54.210Z,132.85
2019-01-11T11:05:23.510Z,158.93
2019-01-11T11:07:53.155Z,153.00
2019-01-11T11:10:22.443Z,343.33
2019-01-11T11:12:52.162Z,361.43
2019-01-11T11:15:21.770Z,145.05
2019-01-11T11:17:51.383Z,341.45
2019-01-11T11:20:20.755Z,260.50
2019-01-11T11:22:50.206Z,152.70
2019-01-11T11:25:20.479Z,564.17
2019-01-11T11:27:50.223Z,468.67
2019-01-11T11:30:19.752Z,304.63
2019-01-11T11:32:58.841Z,472.30
2019-01-11T11:35:28.319Z,827.97
2019-01-11T11:37:57.929Z,770.88
2019-01-11T11:40:27.467Z,550.92
2019-01-11T11:42:56.794Z,571.40
2019-01-11T11:45:26.086Z,146.32
2019-01-11T11:47:55.370Z,798.70
2019-01-11T11:50:24.994Z,328.92
2019-01-11T11:52:54.597Z,612.62
2019-01-11T11:55:24.424Z,783.12
2019-01-11T11:57:53.703Z,13.90
2019-01-11T12:00:23.526Z,99.62
2019-01-11T12:02:53.134Z,550.75
2019-01-11T12:05:22.426Z,431.80
2019-01-11T12:07:52.048Z,448.20
2019-01-11T12:10:21.343Z,818.20
2019-01-11T12:12:50.617Z,194.20
2019-01-11T12:15:19.918Z,795.90
2019-01-11T12:17:49.196Z,66.53
2019-01-11T12:20:21.706Z,495.45
2019-01-11T12:22:51.432Z,826.15
2019-01-11T12:25:21.043Z,456.32
2019-01-11T12:27:50.663Z,646.72
2019-01-11T12:30:20.018Z,608.83
2019-01-11T12:32:49.305Z,727.28
2019-01-11T12:35:18.855Z,783.98
2019-01-11T12:37:49.222Z,901.58
2019-01-11T12:40:18.498Z,687.38
2019-01-11T12:42:47.803Z,889.72
2019-01-11T12:45:17.630Z,808.20
2019-01-11T12:47:47.892Z,987.33
2019-01-11T12:50:22.437Z,740.85
2019-01-11T12:52:52.975Z,418.67
2019-01-11T12:55:22.687Z,596.00
2019-01-11T12:57:52.048Z,541.70
2019-01-11T13:00:21.330Z,323.87
2019-01-11T13:02:50.621Z,265.15
2019-01-11T13:05:20.508Z,426.82
2019-01-11T13:07:50.106Z,496.83
2019-01-11T13:10:19.621Z,286.60
2019-01-11T13:12:49.882Z,217.20
2019-01-11T13:15:20.543Z,364.75
2019-01-11T13:17:50.190Z,223.07
2019-01-11T13:20:20.707Z,155.85
2019-01-11T13:22:50.070Z,172.15
2019-01-11T13:25:19.355Z,124.62
2019-01-11T13:27:48.710Z,214.82
2019-01-11T13:30:19.129Z,136.20
2019-01-11T13:32:48.847Z,136.40
2019-01-11T13:35:18.461Z,85.77
2019-01-11T13:37:47.750Z,107.63
2019-01-11T13:40:19.779Z,112.57
2019-01-11T13:42:49.331Z,55.05
2019-01-11T13:45:18.772Z,92.00
2019-01-11T13:47:48.058Z,46.05
2019-01-11T13:50:20.415Z,95.95
2019-01-11T13:52:49.707Z,44.60
2019-01-11T13:55:19.331Z,94.15
2019-01-11T13:57:48.619Z,118.35
2019-01-11T14:00:17.891Z,97.80
2019-01-11T14:02:47.178Z,118.93
2019-01-11T14:05:17.747Z,83.27
2019-01-11T14:07:47.358Z,41.90
2019-01-11T14:10:16.879Z,50.20
2019-01-11T14:12:46.171Z,103.00
2019-01-11T14:15:15.623Z,103.45
2019-01-11T14:17:44.969Z,85.15
2019-01-11T14:20:14.247Z,53.23
2019-01-11T14:22:43.878Z,58.38
2019-01-11T14:25:13.402Z,124.72
2019-01-11T14:27:42.986Z,162.00
2019-01-11T14:30:15.286Z,58.73
2019-01-11T14:32:44.984Z,55.50
2019-01-11T14:35:14.598Z,35.17
2019-01-11T14:37:43.888Z,31.65
2019-01-11T14:40:15.949Z,38.70
2019-01-11T14:42:45.656Z,46.08
2019-01-11T14:45:16.890Z,55.45
2019-01-11T14:47:46.378Z,56.33
2019-01-11T14:50:18.183Z,68.28
2019-01-11T14:52:47.703Z,144.65
2019-01-11T14:55:16.977Z,156.72
2019-01-11T14:57:47.605Z,264.57
2019-01-11T15:00:19.467Z,166.18
2019-01-11T15:02:48.754Z,147.90
2019-01-11T15:05:19.181Z,280.05
2019-01-11T15:07:48.837Z,397.35
2019-01-11T15:10:18.134Z,527.00
2019-01-11T15:12:48.410Z,315.37
2019-01-11T15:15:17.950Z,431.67
2019-01-11T15:17:47.239Z,462.02
2019-01-11T15:20:17.697Z,368.37
2019-01-11T15:22:47.414Z,357.20
2019-01-11T15:25:17.187Z,249.62
2019-01-11T15:27:46.543Z,254.50
2019-01-11T15:30:17.873Z,172.25
2019-01-11T15:32:47.153Z,220.63
2019-01-11T15:35:16.882Z,160.52
2019-01-11T15:37:46.457Z,124.02
2019-01-11T15:40:23.976Z,118.05
2019-01-11T15:42:53.555Z,121.22
2019-01-11T15:45:22.841Z,122.53
2019-01-11T15:47:52.125Z,145.05
2019-01-11T15:50:41.631Z,106.05
2019-01-11T15:53:11.238Z,96.50
2019-01-11T15:55:40.844Z,101.12
2019-01-11T15:58:10.698Z,77.32
2019-01-11T16:00:45.267Z,89.67
2019-01-11T16:03:14.726Z,88.97
2019-01-11T16:05:44.013Z,110.20
2019-01-11T16:08:13.600Z,122.40
2019-01-11T16:10:52.011Z,116.65
2019-01-11T16:13:21.461Z,89.15
2019-01-11T16:15:53.833Z,89.20
2019-01-11T16:18:23.693Z,98.60
2019-01-11T16:20:54.354Z,91.30
2019-01-11T16:23:23.670Z,116.93
2019-01-11T16:25:53.247Z,91.30
2019-01-11T16:28:22.534Z,107.12
2019-01-11T16:30:51.824Z,94.77
2019-01-11T16:33:21.133Z,104.03
2019-01-11T16:35:50.770Z,100.00
2019-01-11T16:38:20.359Z,133.22
2019-01-11T16:40:49.654Z,108.25
2019-01-11T16:43:18.993Z,99.55
2019-01-11T16:45:48.582Z,109.10
2019-01-11T16:48:17.854Z,91.78
2019-01-11T16:50:47.173Z,103.62
2019-01-11T16:53:16.779Z,103.87
2019-01-11T16:55:46.615Z,91.05
2019-01-11T16:58:17.223Z,71.70
2019-01-11T17:00:46.513Z,68.33
2019-01-11T17:03:16.885Z,59.03
2019-01-11T17:05:46.458Z,51.55
2019-01-11T17:08:15.764Z,53.63
2019-01-11T17:10:45.400Z,49.40
2019-01-11T17:13:14.682Z,46.30
2019-01-11T17:15:44.375Z,53.28
2019-01-11T17:18:13.678Z,62.75
2019-01-11T17:20:43.225Z,49.33
2019-01-11T17:23:12.502Z,55.48
2019-01-11T17:25:41.795Z,56.10
2019-01-11T17:28:11.124Z,56.02
2019-01-11T17:30:40.454Z,51.15
2019-01-11T17:33:09.735Z,59.75
2019-01-11T17:35:39.295Z,56.25
2019-01-11T17:38:08.600Z,53.52
2019-01-11T17:40:37.878Z,50.85
2019-01-11T17:43:08.558Z,51.15
2019-01-11T17:45:38.002Z,54.10
2019-01-11T17:48:07.290Z,47.73
2019-01-11T17:50:36.844Z,51.42
2019-01-11T17:53:06.135Z,48.73
2019-01-11T17:55:35.405Z,51.73
2019-01-11T17:58:04.976Z,49.65
2019-01-11T18:00:34.255Z,53.58
2019-01-11T18:03:03.963Z,46.53
2019-01-11T18:05:33.566Z,47.85
2019-01-11T18:08:02.946Z,49.77
2019-01-11T18:10:32.473Z,44.67
2019-01-11T18:13:03.527Z,46.08
2019-01-11T18:15:33.084Z,47.60
2019-01-11T18:18:02.368Z,41.08
2019-01-11T18:20:31.646Z,47.13
2019-01-11T18:23:06.863Z,40.65
2019-01-11T18:25:33.224Z,39.78
2019-01-11T18:28:02.510Z,37.35
2019-01-11T18:30:32.110Z,39.38
2019-01-11T18:33:01.455Z,49.45
2019-01-11T18:35:31.048Z,48.85
2019-01-11T18:38:00.446Z,50.52
2019-01-11T18:40:29.779Z,46.37
2019-01-11T18:42:59.153Z,48.95
2019-01-11T18:45:29.048Z,40.70
2019-01-11T18:47:58.647Z,49.33
2019-01-11T18:50:28.254Z,52.95
2019-01-11T18:52:57.538Z,51.73
2019-01-11T18:55:27.884Z,49.08
2019-01-11T18:57:58.510Z,43.95
2019-01-11T19:00:27.870Z,42.43
2019-01-11T19:02:57.427Z,43.95
2019-01-11T19:05:27.022Z,31.65
2019-01-11T19:07:56.631Z,35.03
2019-01-11T19:10:25.956Z,35.38
2019-01-11T19:12:55.282Z,42.65
2019-01-11T19:15:26.719Z,49.10
2019-01-11T19:17:56.310Z,43.17
2019-01-11T19:20:27.448Z,42.67
2019-01-11T19:22:56.725Z,49.93
2019-01-11T19:25:26.086Z,42.90
2019-01-11T19:27:55.370Z,49.83
2019-01-11T19:30:26.620Z,48.83
2019-01-11T19:32:56.299Z,37.90
2019-01-11T19:35:25.652Z,50.17
2019-01-11T19:37:54.946Z,42.62
2019-01-11T19:40:24.369Z,50.28
2019-01-11T19:42:54.015Z,44.98
2019-01-11T19:45:23.725Z,42.90
2019-01-11T19:47:53.001Z,46.18
2019-01-11T19:50:23.655Z,44.30
2019-01-11T19:52:53.262Z,44.65
2019-01-11T19:55:22.555Z,43.98
2019-01-11T19:57:51.906Z,49.40
2019-01-11T20:00:23.740Z,41.77
2019-01-11T20:02:53.771Z,44.20
2019-01-11T20:05:23.390Z,44.93
2019-01-11T20:07:53.083Z,47.80
2019-01-11T20:10:30.727Z,39.45
2019-01-11T20:13:00.442Z,43.75
2019-01-11T20:15:30.292Z,39.35
2019-01-11T20:17:59.901Z,36.17
2019-01-11T20:20:29.622Z,44.23
2019-01-11T20:23:02.509Z,41.40
2019-01-11T20:25:30.059Z,43.42
2019-01-11T20:27:59.353Z,47.65
2019-01-11T20:30:29.350Z,44.08
2019-01-11T20:32:58.700Z,40.12
2019-01-11T20:35:28.126Z,42.45
2019-01-11T20:37:57.653Z,41.58
2019-01-11T20:40:27.007Z,36.48
2019-01-11T20:42:56.339Z,41.05
2019-01-11T20:45:26.096Z,39.70
2019-01-11T20:47:55.449Z,42.45
2019-01-11T20:50:25.081Z,44.18
2019-01-11T20:52:54.539Z,42.80
2019-01-11T20:55:23.906Z,42.40
2019-01-11T20:57:53.351Z,41.92
2019-01-11T21:00:28.004Z,39.90
2019-01-11T21:02:57.352Z,39.15
2019-01-11T21:05:27.292Z,49.50
2019-01-11T21:07:56.652Z,39.25
2019-01-11T21:10:26.199Z,40.12
2019-01-11T21:12:55.690Z,42.98
2019-01-11T21:15:25.244Z,44.03
2019-01-11T21:17:54.895Z,42.40
2019-01-11T21:20:24.314Z,37.17
2019-01-11T21:22:53.670Z,34.40
2019-01-11T21:25:23.042Z,41.92
2019-01-11T21:27:52.329Z,43.45
2019-01-11T21:30:24.095Z,40.73
2019-01-11T21:32:53.558Z,28.02
2019-01-11T21:35:23.279Z,34.88
2019-01-11T21:37:52.603Z,32.13
2019-01-11T21:40:23.158Z,34.35
2019-01-11T21:42:53.496Z,38.08
2019-01-11T21:45:22.768Z,40.65
2019-01-11T21:47:52.359Z,42.00
2019-01-11T21:50:23.579Z,42.67
2019-01-11T21:52:53.495Z,39.53
2019-01-11T21:55:22.886Z,36.77
2019-01-11T21:57:52.722Z,33.40
2019-01-11T22:00:30.402Z,31.80
2019-01-11T22:03:00.032Z,26.90
2019-01-11T22:05:29.314Z,30.88
2019-01-11T22:07:58.597Z,25.08
2019-01-11T22:10:27.877Z,25.92
2019-01-11T22:12:57.626Z,27.55
2019-01-11T22:15:27.251Z,25.97
2019-01-11T22:17:56.543Z,24.47
2019-01-11T22:20:25.894Z,21.60
2019-01-11T22:22:55.182Z,21.75
2019-01-11T22:25:24.529Z,23.98
2019-01-11T22:27:53.830Z,25.52
2019-01-11T22:30:30.128Z,26.40
2019-01-11T22:32:55.535Z,38.58
2019-01-11T22:35:24.829Z,34.75
2019-01-11T22:37:54.428Z,42.38
2019-01-11T22:40:24.547Z,46.08
2019-01-11T22:42:55.990Z,44.30
2019-01-11T22:45:25.280Z,45.98
2019-01-11T22:47:54.572Z,44.25
2019-01-11T22:50:23.856Z,29.95
2019-01-11T22:52:53.138Z,36.38
2019-01-11T22:55:22.506Z,34.27
2019-01-11T22:57:51.790Z,35.78
2019-01-11T23:00:31.571Z,44.08
2019-01-11T23:03:00.872Z,39.15
2019-01-11T23:05:30.130Z,31.85
2019-01-11T23:07:59.759Z,34.92
2019-01-11T23:10:35.003Z,40.35
2019-01-11T23:13:04.322Z,44.35
2019-01-11T23:15:33.911Z,43.92
2019-01-11T23:18:03.198Z,43.38
2019-01-11T23:20:32.489Z,43.70
2019-01-11T23:23:02.022Z,35.52
2019-01-11T23:25:31.305Z,37.03
2019-01-11T23:28:00.581Z,38.25
2019-01-11T23:30:29.874Z,33.15
2019-01-11T23:32:59.422Z,31.05
2019-01-11T23:35:28.723Z,36.13
2019-01-11T23:37:58.330Z,40.78
2019-01-11T23:40:27.967Z,38.98
2019-01-11T23:42:57.241Z,30.43
2019-01-11T23:45:26.535Z,32.35
2019-01-11T23:47:55.880Z,34.73
2019-01-11T23:50:25.560Z,26.42
2019-01-11T23:52:54.834Z,23.05
2019-01-11T23:55:24.131Z,24.30
2019-01-11T23:57:53.400Z,24.35
